Time;durP1;ratioP1;P1;durP2;ratioP2;P2;SDS_P1;SDS_P2;PMS_P1;PMS_P2;Temp;Humidity;BMP_temperature;BMP_pressure;BME280_temperature;BME280_humidity;BME280_pressure;Samples;Min_cycle;Max_cycle;Signal;HPM_P1;HPM_P2
2022/08/16 00:00:42;;;;;;;4.97;4.10;;;19.40;99.90;;;;;;5033590;28;20881;-70
2022/08/16 00:03:09;;;;;;;4.00;3.30;;;19.40;99.90;;;;;;5033807;28;20415;-70
2022/08/16 00:05:35;;;;;;;4.63;3.53;;;19.30;99.90;;;;;;5033632;28;20449;-70
2022/08/16 00:08:01;;;;;;;3.87;3.53;;;19.30;99.90;;;;;;5033660;28;20446;-71
2022/08/16 00:10:31;;;;;;;4.50;4.10;;;19.20;99.90;;;;;;5033852;28;20413;-70
2022/08/16 00:12:58;;;;;;;4.90;3.37;;;19.20;99.90;;;;;;5033643;28;20787;-70
2022/08/16 00:15:38;;;;;;;3.30;2.93;;;19.10;99.90;;;;;;5033412;28;20817;-71
2022/08/16 00:18:05;;;;;;;3.23;2.90;;;19.00;99.90;;;;;;5033661;28;20764;-70
2022/08/16 00:20:32;;;;;;;5.47;3.70;;;19.00;99.90;;;;;;5033587;28;20410;-70
2022/08/16 00:22:57;;;;;;;4.33;3.93;;;19.00;99.90;;;;;;5033387;28;20918;-70
2022/08/16 00:25:24;;;;;;;5.07;4.03;;;19.00;99.90;;;;;;5033219;28;20406;-70
2022/08/16 00:27:50;;;;;;;4.40;3.43;;;18.90;99.90;;;;;;5033396;28;20562;-70
2022/08/16 00:30:18;;;;;;;6.97;3.13;;;18.90;99.90;;;;;;5033406;28;20403;-71
2022/08/16 00:32:47;;;;;;;3.73;3.43;;;18.90;99.90;;;;;;5033267;28;20903;-70
2022/08/16 00:35:18;;;;;;;5.67;4.10;;;18.80;99.90;;;;;;5033033;28;20481;-71
2022/08/16 00:37:45;;;;;;;3.00;2.73;;;18.80;99.90;;;;;;5033041;28;20429;-70
2022/08/16 00:40:23;;;;;;;4.30;3.40;;;18.80;99.90;;;;;;5033187;28;20418;-71
2022/08/16 00:42:49;;;;;;;3.77;3.30;;;18.70;99.90;;;;;;5033164;28;20429;-70
2022/08/16 00:45:38;;;;;;;3.63;3.30;;;18.70;99.90;;;;;;5032850;28;20402;-70
2022/08/16 00:48:06;;;;;;;4.70;3.33;;;18.70;99.90;;;;;;5033028;28;20713;-71
2022/08/16 00:50:37;;;;;;;3.63;3.33;;;18.60;99.90;;;;;;5031662;28;20433;-70
2022/08/16 00:53:09;;;;;;;4.87;4.20;;;18.70;99.90;;;;;;5032908;28;20422;-71
2022/08/16 00:55:41;;;;;;;3.30;3.00;;;18.70;99.90;;;;;;5032738;28;20399;-70
2022/08/16 00:58:09;;;;;;;6.53;3.63;;;18.70;99.90;;;;;;5032884;28;20493;-70
2022/08/16 01:00:35;;;;;;;3.77;3.37;;;18.70;99.90;;;;;;5031578;28;20417;-71
2022/08/16 01:03:09;;;;;;;4.70;3.30;;;18.60;99.90;;;;;;5032649;28;20434;-70
2022/08/16 01:05:35;;;;;;;4.00;3.60;;;18.60;99.90;;;;;;5032472;28;20431;-70
2022/08/16 01:08:02;;;;;;;3.40;3.10;;;18.50;99.90;;;;;;5032696;28;20442;-71
2022/08/16 01:10:30;;;;;;;7.13;3.50;;;18.50;99.90;;;;;;5032490;28;20807;-70
2022/08/16 01:12:56;;;;;;;4.67;3.30;;;18.50;99.90;;;;;;5032105;28;20879;-70
2022/08/16 01:15:22;;;;;;;4.70;3.80;;;18.50;99.90;;;;;;5032572;28;20409;-71
2022/08/16 01:17:48;;;;;;;6.07;4.00;;;18.50;99.90;;;;;;5032494;28;20406;-71
2022/08/16 01:20:15;;;;;;;4.37;3.97;;;18.50;99.90;;;;;;5032632;28;20900;-71
2022/08/16 01:23:15;;;;;;;6.57;3.23;;;18.40;99.90;;;;;;5032332;28;20703;-71
2022/08/16 01:25:44;;;;;;;4.23;3.83;;;18.40;99.90;;;;;;5032178;28;20406;-71
2022/08/16 01:28:16;;;;;;;4.50;3.80;;;18.30;99.90;;;;;;5032253;28;20462;-70
2022/08/16 01:30:47;;;;;;;4.23;3.50;;;18.30;99.90;;;;;;5032273;28;20402;-71
2022/08/16 01:33:13;;;;;;;3.67;3.37;;;18.30;99.90;;;;;;5032072;28;20426;-70
2022/08/16 01:35:50;;;;;;;4.90;4.40;;;18.20;99.90;;;;;;5031863;28;20818;-71
2022/08/16 01:38:30;;;;;;;3.90;2.80;;;18.20;99.90;;;;;;5032269;28;20177;-71
2022/08/16 01:41:04;;;;;;;4.67;3.80;;;18.20;99.90;;;;;;5032314;28;20414;-71
2022/08/16 01:43:31;;;;;;;4.33;3.87;;;18.20;99.90;;;;;;5031051;28;20509;-70
2022/08/16 01:46:00;;;;;;;4.53;4.00;;;18.20;99.90;;;;;;5031924;28;20460;-71
2022/08/16 01:48:31;;;;;;;4.40;3.87;;;18.10;99.90;;;;;;5031998;28;20446;-71
2022/08/16 01:50:58;;;;;;;4.67;3.60;;;18.10;99.90;;;;;;5031895;28;20795;-71
2022/08/16 01:53:25;;;;;;;5.93;4.07;;;18.00;99.90;;;;;;5032123;28;20405;-70
2022/08/16 01:55:51;;;;;;;4.10;3.67;;;18.00;99.90;;;;;;5031988;28;20892;-71
2022/08/16 01:58:17;;;;;;;5.30;4.50;;;18.00;99.90;;;;;;5030800;28;20429;-71
2022/08/16 02:00:44;;;;;;;6.40;4.13;;;18.00;99.90;;;;;;5032047;28;20309;-71
2022/08/16 02:03:10;;;;;;;3.97;3.57;;;17.90;99.90;;;;;;5032102;28;20432;-71
2022/08/16 02:05:38;;;;;;;4.00;3.20;;;17.90;99.90;;;;;;5031656;28;20493;-71
2022/08/16 02:08:04;;;;;;;4.13;3.60;;;17.80;99.90;;;;;;5031992;28;20241;-71
2022/08/16 02:10:30;;;;;;;3.83;3.33;;;17.80;99.90;;;;;;5031883;28;20402;-71
2022/08/16 02:12:56;;;;;;;3.97;3.50;;;17.80;99.90;;;;;;5031726;28;20927;-71
2022/08/16 02:15:25;;;;;;;4.07;3.20;;;17.70;99.90;;;;;;5031575;28;20407;-71
2022/08/16 02:17:55;;;;;;;3.03;2.70;;;17.70;99.90;;;;;;5031891;28;20168;-71
2022/08/16 02:20:21;;;;;;;3.60;3.30;;;17.60;99.90;;;;;;5031594;28;20441;-71
2022/08/16 02:22:47;;;;;;;3.37;3.07;;;17.60;99.90;;;;;;5033466;28;20426;-71
2022/08/16 02:25:14;;;;;;;4.40;2.83;;;17.60;99.90;;;;;;5035523;28;20767;-71
2022/08/16 02:27:43;;;;;;;3.83;3.37;;;17.60;99.90;;;;;;5035637;28;20704;-71
2022/08/16 02:30:13;;;;;;;4.13;3.33;;;17.60;99.90;;;;;;5035689;28;20402;-71
2022/08/16 02:32:40;;;;;;;3.87;3.10;;;17.50;99.90;;;;;;5035548;28;20422;-70
2022/08/16 02:35:06;;;;;;;8.20;4.77;;;17.50;99.90;;;;;;5035159;28;20405;-70
2022/08/16 02:37:32;;;;;;;3.50;3.00;;;17.50;99.90;;;;;;5035542;28;20402;-70
2022/08/16 02:39:58;;;;;;;6.00;4.70;;;17.40;99.90;;;;;;5035450;28;20772;-71
2022/08/16 02:42:23;;;;;;;3.93;3.57;;;17.40;99.90;;;;;;5035298;28;20183;-71
2022/08/16 02:44:49;;;;;;;3.33;3.03;;;17.30;99.90;;;;;;5035078;28;20211;-71
2022/08/16 02:47:15;;;;;;;3.07;2.80;;;17.30;99.90;;;;;;5035318;28;20192;-71
2022/08/16 02:49:41;;;;;;;3.20;3.00;;;17.30;99.90;;;;;;5035565;28;20171;-71
2022/08/16 02:52:07;;;;;;;3.63;2.93;;;17.30;99.90;;;;;;5035123;28;20442;-71
2022/08/16 02:54:33;;;;;;;3.93;3.50;;;17.30;99.90;;;;;;5034960;28;20414;-71
2022/08/16 02:56:59;;;;;;;8.77;5.40;;;17.30;99.90;;;;;;5034954;28;20167;-71
2022/08/16 02:59:26;;;;;;;5.17;4.00;;;17.30;99.90;;;;;;5033880;28;20410;-71
2022/08/16 03:01:53;;;;;;;3.80;3.27;;;17.30;99.90;;;;;;5035182;28;20218;-70
2022/08/16 03:04:19;;;;;;;6.73;3.50;;;17.30;99.90;;;;;;5034746;28;20407;-70
2022/08/16 03:06:44;;;;;;;4.50;3.53;;;17.20;99.90;;;;;;5034893;28;20398;-71
2022/08/16 03:09:10;;;;;;;3.53;3.00;;;17.20;99.90;;;;;;5034947;28;20595;-70
2022/08/16 03:11:36;;;;;;;3.30;3.00;;;17.20;99.90;;;;;;5034699;28;20196;-71
2022/08/16 03:14:02;;;;;;;4.30;3.53;;;17.20;99.90;;;;;;5034788;28;20172;-71
2022/08/16 03:16:27;;;;;;;4.63;4.23;;;17.20;99.90;;;;;;5034028;28;20217;-71
2022/08/16 03:18:53;;;;;;;10.13;3.20;;;17.10;99.90;;;;;;5033694;28;20812;-71
2022/08/16 03:21:20;;;;;;;4.23;3.57;;;17.10;99.90;;;;;;5034010;28;20754;-71
2022/08/16 03:23:45;;;;;;;3.60;3.10;;;17.10;99.90;;;;;;5034798;28;20489;-71
2022/08/16 03:26:12;;;;;;;3.40;3.10;;;17.10;99.90;;;;;;5034303;28;20413;-71
2022/08/16 03:28:38;;;;;;;3.60;2.40;;;17.10;99.90;;;;;;5034561;28;20195;-71
2022/08/16 03:31:05;;;;;;;4.20;2.50;;;17.00;99.90;;;;;;5034438;28;20406;-71
2022/08/16 03:33:32;;;;;;;3.07;2.43;;;17.00;99.90;;;;;;5034099;28;20411;-71
2022/08/16 03:35:58;;;;;;;3.30;3.00;;;16.90;99.90;;;;;;5033638;28;20415;-71
2022/08/16 03:38:25;;;;;;;4.17;3.67;;;16.90;99.90;;;;;;5034335;28;20885;-71
2022/08/16 03:40:52;;;;;;;4.47;3.87;;;16.80;99.90;;;;;;5034304;28;20413;-71
2022/08/16 03:43:17;;;;;;;6.30;2.67;;;16.90;99.90;;;;;;5034266;28;20950;-71
2022/08/16 03:45:43;;;;;;;4.33;3.20;;;16.90;99.90;;;;;;5034132;28;20493;-71
2022/08/16 03:48:09;;;;;;;3.13;2.60;;;16.80;99.90;;;;;;5034263;28;20561;-71
2022/08/16 03:50:36;;;;;;;3.03;2.40;;;16.80;99.90;;;;;;5034198;28;20184;-71
2022/08/16 03:53:03;;;;;;;3.63;3.20;;;16.80;99.90;;;;;;5034074;28;20438;-71
2022/08/16 03:55:28;;;;;;;4.70;2.70;;;16.80;99.90;;;;;;5033450;28;20414;-71
2022/08/16 03:57:54;;;;;;;2.80;2.53;;;16.80;99.90;;;;;;5034047;28;20417;-71
2022/08/16 04:00:23;;;;;;;3.53;3.17;;;16.80;99.90;;;;;;5034325;28;20202;-71
2022/08/16 04:02:51;;;;;;;31.33;18.53;;;16.80;99.90;;;;;;5033962;28;20199;-71
2022/08/16 04:05:17;;;;;;;19.67;10.20;;;16.80;99.90;;;;;;5033651;28;20427;-71
2022/08/16 04:07:43;;;;;;;5.77;4.23;;;16.80;99.90;;;;;;5033968;28;20485;-71
2022/08/16 04:10:11;;;;;;;4.60;4.00;;;16.80;99.90;;;;;;5032989;28;20957;-70
2022/08/16 04:12:38;;;;;;;3.27;2.90;;;16.80;99.90;;;;;;5033787;28;20426;-70
2022/08/16 04:15:06;;;;;;;4.43;2.87;;;16.80;99.90;;;;;;5033625;28;21006;-71
2022/08/16 04:17:32;;;;;;;3.93;3.47;;;16.80;99.90;;;;;;5033619;28;20445;-71
2022/08/16 04:19:57;;;;;;;4.07;2.93;;;16.80;99.90;;;;;;5033529;28;20445;-71
2022/08/16 04:22:24;;;;;;;3.70;3.20;;;16.80;99.90;;;;;;5033340;28;20207;-71
2022/08/16 04:24:50;;;;;;;5.33;3.07;;;16.80;99.90;;;;;;5033384;28;20313;-71
2022/08/16 04:27:15;;;;;;;2.97;2.77;;;16.80;99.90;;;;;;5033465;28;20536;-71
2022/08/16 04:29:41;;;;;;;3.70;2.97;;;16.80;99.90;;;;;;5033465;28;20411;-70
2022/08/16 04:32:07;;;;;;;9.97;5.13;;;16.80;99.90;;;;;;5033284;28;20724;-70
2022/08/16 04:34:34;;;;;;;6.30;3.40;;;16.80;99.90;;;;;;5031859;28;20664;-70
2022/08/16 04:37:00;;;;;;;3.27;2.90;;;16.80;99.90;;;;;;5033283;28;20182;-71
2022/08/16 04:39:26;;;;;;;3.27;2.97;;;16.80;99.90;;;;;;5033268;28;20410;-71
2022/08/16 04:41:52;;;;;;;4.30;3.03;;;16.90;99.90;;;;;;5033243;28;20278;-71
2022/08/16 04:44:18;;;;;;;3.50;2.63;;;16.90;99.90;;;;;;5033033;28;20978;-71
2022/08/16 04:46:43;;;;;;;2.63;2.10;;;16.90;99.90;;;;;;5032194;28;20498;-71
2022/08/16 04:49:10;;;;;;;3.10;2.50;;;16.90;99.90;;;;;;5033096;28;20235;-71
2022/08/16 04:51:38;;;;;;;3.93;2.70;;;17.00;99.90;;;;;;5032714;28;20203;-70
2022/08/16 04:54:03;;;;;;;3.50;3.20;;;17.00;99.90;;;;;;5033169;28;20434;-71
2022/08/16 04:56:29;;;;;;;4.17;3.17;;;17.10;99.90;;;;;;5031537;28;20477;-71
2022/08/16 04:58:55;;;;;;;2.83;2.53;;;17.10;99.90;;;;;;5033180;28;20167;-71
2022/08/16 05:01:20;;;;;;;4.20;2.80;;;17.20;99.90;;;;;;5032644;28;20460;-70
2022/08/16 05:03:46;;;;;;;13.17;9.30;;;17.20;99.90;;;;;;5032809;28;20553;-70
2022/08/16 05:06:12;;;;;;;5.43;4.47;;;17.20;99.90;;;;;;5032406;28;20176;-71
2022/08/16 05:08:38;;;;;;;4.27;3.37;;;17.30;99.90;;;;;;5032686;28;20468;-70
2022/08/16 05:11:07;;;;;;;9.33;3.37;;;17.30;99.90;;;;;;5032439;28;20175;-70
2022/08/16 05:13:36;;;;;;;6.00;3.17;;;17.40;99.90;;;;;;5032594;28;20421;-70
2022/08/16 05:16:02;;;;;;;4.00;3.00;;;17.40;99.90;;;;;;5032080;28;20842;-70
2022/08/16 05:18:27;;;;;;;4.47;3.40;;;17.50;99.90;;;;;;5032465;28;20402;-70
2022/08/16 05:20:53;;;;;;;4.63;3.30;;;17.50;99.90;;;;;;5032434;28;20422;-71
2022/08/16 05:23:19;;;;;;;2.70;2.50;;;17.60;99.90;;;;;;5032369;28;20187;-71
2022/08/16 05:25:45;;;;;;;5.13;3.43;;;17.60;99.90;;;;;;5032284;28;20499;-70
2022/08/16 05:28:10;;;;;;;3.77;3.37;;;17.70;99.90;;;;;;5032407;28;20348;-71
2022/08/16 05:30:37;;;;;;;3.83;3.13;;;17.80;99.90;;;;;;5032595;28;20164;-70
2022/08/16 05:33:03;;;;;;;4.33;3.70;;;17.90;99.90;;;;;;5032394;28;20202;-71
2022/08/16 05:35:29;;;;;;;3.97;3.57;;;18.00;99.90;;;;;;5032210;28;20444;-70
2022/08/16 05:37:55;;;;;;;3.90;3.60;;;18.10;99.90;;;;;;5032291;28;20414;-71
2022/08/16 05:40:20;;;;;;;4.97;3.27;;;18.30;99.90;;;;;;5032204;28;20175;-71
2022/08/16 05:42:46;;;;;;;4.40;3.90;;;18.40;99.90;;;;;;5032078;28;20607;-71
2022/08/16 05:45:12;;;;;;;6.10;3.80;;;18.60;99.90;;;;;;5031830;28;20168;-71
2022/08/16 05:47:38;;;;;;;6.00;4.30;;;18.90;99.90;;;;;;5032113;28;20694;-71
2022/08/16 05:50:05;;;;;;;4.93;3.87;;;19.20;99.90;;;;;;5032118;28;20406;-71
2022/08/16 05:52:31;;;;;;;5.17;3.80;;;19.50;99.90;;;;;;5031917;28;20261;-71
2022/08/16 05:54:56;;;;;;;5.20;4.80;;;19.90;99.90;;;;;;5031762;28;20402;-71
2022/08/16 05:57:22;;;;;;;4.53;4.13;;;20.30;99.90;;;;;;5031727;28;20182;-71
2022/08/16 05:59:48;;;;;;;6.30;4.37;;;20.60;99.90;;;;;;5032002;28;20163;-71
2022/08/16 06:02:14;;;;;;;6.40;4.10;;;21.00;99.90;;;;;;5031661;28;20215;-71
2022/08/16 06:04:40;;;;;;;8.47;4.60;;;21.40;99.90;;;;;;5030562;28;20419;-71
2022/08/16 06:07:06;;;;;;;5.40;3.67;;;21.80;99.90;;;;;;5031761;28;20773;-71
2022/08/16 06:09:32;;;;;;;4.53;3.90;;;22.30;99.90;;;;;;5030971;28;20188;-71
2022/08/16 06:12:01;;;;;;;5.10;4.60;;;22.80;99.90;;;;;;5031809;28;20430;-71
2022/08/16 06:14:28;;;;;;;6.03;3.73;;;23.30;99.90;;;;;;5031687;28;20406;-71
2022/08/16 06:16:53;;;;;;;3.83;3.47;;;23.70;99.90;;;;;;5032059;28;20403;-71
2022/08/16 06:19:19;;;;;;;4.53;3.40;;;24.20;99.90;;;;;;5031817;28;20406;-71
2022/08/16 06:21:46;;;;;;;3.67;3.37;;;24.70;99.90;;;;;;5031745;28;20191;-71
2022/08/16 06:24:11;;;;;;;3.30;2.90;;;25.20;99.90;;;;;;5031708;28;20164;-71
2022/08/16 06:26:37;;;;;;;6.23;4.20;;;25.70;99.90;;;;;;5031666;28;20825;-71
2022/08/16 06:29:03;;;;;;;5.50;3.40;;;26.30;99.90;;;;;;5031661;28;20218;-71
2022/08/16 06:31:29;;;;;;;5.13;3.57;;;26.60;99.90;;;;;;5031600;28;20958;-71
2022/08/16 06:33:54;;;;;;;4.00;3.60;;;27.00;99.90;;;;;;5031309;28;20507;-71
2022/08/16 06:36:20;;;;;;;4.60;3.60;;;27.40;99.90;;;;;;5030934;28;20221;-71
2022/08/16 06:38:46;;;;;;;4.53;3.47;;;27.80;99.90;;;;;;5031675;28;20179;-71
2022/08/16 06:41:11;;;;;;;5.30;4.17;;;28.30;99.90;;;;;;5031840;28;20175;-71
2022/08/16 06:43:37;;;;;;;4.93;4.43;;;28.60;99.90;;;;;;5031295;28;20445;-71
2022/08/16 06:46:06;;;;;;;7.50;3.43;;;28.90;99.90;;;;;;5031498;28;20632;-71
2022/08/16 06:48:34;;;;;;;4.77;2.90;;;29.40;99.90;;;;;;5031177;28;20461;-71
2022/08/16 06:51:04;;;;;;;3.43;3.13;;;29.80;99.90;;;;;;5031145;28;20426;-72
2022/08/16 06:53:32;;;;;;;3.87;2.90;;;30.30;98.50;;;;;;5031195;28;20406;-71
2022/08/16 06:55:59;;;;;;;3.27;2.97;;;31.00;93.40;;;;;;5030986;28;20406;-71
2022/08/16 06:58:24;;;;;;;3.90;3.50;;;31.40;88.10;;;;;;5031549;28;20414;-72
2022/08/16 07:00:50;;;;;;;2.60;2.40;;;31.70;79.80;;;;;;5031589;28;20935;-72
2022/08/16 07:03:17;;;;;;;2.50;2.30;;;32.10;73.60;;;;;;5031817;28;20198;-72
2022/08/16 07:05:42;;;;;;;2.67;2.47;;;32.30;68.90;;;;;;5031361;28;20172;-72
2022/08/16 07:08:10;;;;;;;2.80;2.60;;;32.60;66.10;;;;;;5031567;28;21020;-72
2022/08/16 07:10:36;;;;;;;3.10;2.90;;;32.90;64.30;;;;;;5033487;28;20168;-72
2022/08/16 07:13:02;;;;;;;2.90;2.53;;;33.20;64.60;;;;;;5035178;28;20784;-71
2022/08/16 07:15:27;;;;;;;2.83;2.57;;;33.70;59.60;;;;;;5034746;28;20699;-72
2022/08/16 07:17:53;;;;;;;4.20;2.73;;;33.80;59.70;;;;;;5035171;28;20406;-72
2022/08/16 07:20:21;;;;;;;2.57;2.13;;;34.40;58.20;;;;;;5035193;28;20175;-71
2022/08/16 07:22:47;;;;;;;3.43;3.13;;;35.00;55.80;;;;;;5035616;28;20183;-72
2022/08/16 07:25:14;;;;;;;2.47;2.27;;;35.10;54.20;;;;;;5035081;28;20540;-70
2022/08/16 07:27:40;;;;;;;2.30;2.10;;;34.90;54.70;;;;;;5035059;28;20452;-72
2022/08/16 07:30:09;;;;;;;3.00;2.70;;;35.50;52.70;;;;;;5034154;28;20410;-71
2022/08/16 07:32:35;;;;;;;2.97;2.67;;;35.70;52.90;;;;;;5034131;28;20405;-70
2022/08/16 07:35:00;;;;;;;2.70;2.50;;;35.70;51.30;;;;;;5032951;28;20453;-71
2022/08/16 07:37:26;;;;;;;2.70;2.50;;;35.40;51.80;;;;;;5034336;28;20250;-70
2022/08/16 07:39:52;;;;;;;2.67;2.47;;;34.90;53.80;;;;;;5034816;28;20199;-70
2022/08/16 07:42:18;;;;;;;2.50;2.30;;;34.70;52.70;;;;;;5034427;28;20188;-70
2022/08/16 07:44:43;;;;;;;2.70;2.40;;;34.60;52.90;;;;;;5034632;28;20468;-70
2022/08/16 07:47:09;;;;;;;5.30;2.97;;;34.70;52.20;;;;;;5034522;28;20172;-70
2022/08/16 07:49:35;;;;;;;2.80;2.60;;;35.00;51.90;;;;;;5034462;28;20178;-70
2022/08/16 07:52:00;;;;;;;2.47;2.27;;;35.30;52.60;;;;;;5034176;28;20207;-71
2022/08/16 07:54:26;;;;;;;3.33;3.03;;;35.90;52.10;;;;;;5033695;28;20648;-71
2022/08/16 07:56:52;;;;;;;3.63;3.33;;;36.60;50.20;;;;;;5033809;28;20522;-71
2022/08/16 07:59:18;;;;;;;2.73;2.53;;;36.70;48.80;;;;;;5033913;28;20426;-70
2022/08/16 08:01:43;;;;;;;3.27;3.07;;;36.50;48.70;;;;;;5034374;28;20590;-70
2022/08/16 08:04:11;;;;;;;3.80;3.20;;;36.50;48.50;;;;;;5034014;28;20174;-70
2022/08/16 08:06:37;;;;;;;3.93;3.00;;;36.70;48.00;;;;;;5033485;28;20168;-71
2022/08/16 08:09:04;;;;;;;3.00;2.80;;;36.70;47.40;;;;;;5033446;28;20520;-72
2022/08/16 08:11:30;;;;;;;2.80;2.60;;;36.80;48.20;;;;;;5033441;28;20430;-71
2022/08/16 08:14:00;;;;;;;3.20;2.80;;;36.20;47.60;;;;;;5033547;28;20442;-71
2022/08/16 08:16:27;;;;;;;3.57;3.27;;;36.00;48.80;;;;;;5033408;28;20414;-71
2022/08/16 08:18:55;;;;;;;3.20;3.00;;;35.90;48.80;;;;;;5033630;28;20421;-71
2022/08/16 08:21:23;;;;;;;3.33;3.03;;;35.70;48.60;;;;;;5033113;28;20445;-70
2022/08/16 08:23:50;;;;;;;4.13;2.87;;;35.20;48.60;;;;;;5033645;28;21164;-71
2022/08/16 08:26:16;;;;;;;3.50;3.20;;;35.20;49.30;;;;;;5032896;28;20823;-71
2022/08/16 08:28:42;;;;;;;3.43;3.10;;;35.20;50.80;;;;;;5033155;28;20461;-71
2022/08/16 08:31:08;;;;;;;3.80;3.50;;;36.00;49.40;;;;;;5033153;28;20403;-70
2022/08/16 08:33:35;;;;;;;3.27;2.97;;;37.10;48.70;;;;;;5033131;28;20626;-71
2022/08/16 08:36:06;;;;;;;4.77;3.33;;;38.20;47.70;;;;;;5032904;28;20392;-71
2022/08/16 08:38:32;;;;;;;2.87;2.67;;;39.50;47.10;;;;;;5033039;28;20487;-72
2022/08/16 08:40:58;;;;;;;5.03;3.30;;;40.80;43.90;;;;;;5032672;28;20389;-72
2022/08/16 08:43:23;;;;;;;3.20;2.93;;;42.00;42.00;;;;;;5032688;28;20457;-72
2022/08/16 08:45:53;;;;;;;3.70;3.33;;;42.70;40.10;;;;;;5032617;28;20180;-72
2022/08/16 08:48:19;;;;;;;3.13;2.93;;;43.10;37.90;;;;;;5032814;28;20573;-71
2022/08/16 08:50:44;;;;;;;3.63;3.33;;;43.10;36.40;;;;;;5032644;28;20900;-72
2022/08/16 08:53:10;;;;;;;3.03;2.80;;;43.40;36.10;;;;;;5032899;28;20447;-71
2022/08/16 08:55:36;;;;;;;3.50;3.20;;;43.80;36.00;;;;;;5032335;28;20168;-72
2022/08/16 08:58:02;;;;;;;3.87;3.33;;;43.70;36.00;;;;;;5033572;28;20878;-71
2022/08/16 09:00:28;;;;;;;4.50;3.33;;;44.10;35.90;;;;;;5031966;28;20178;-71
2022/08/16 09:02:55;;;;;;;4.07;3.77;;;44.70;35.70;;;;;;5033234;28;20791;-71
2022/08/16 09:05:24;;;;;;;3.63;3.33;;;45.20;35.30;;;;;;5032686;28;20389;-71
2022/08/16 09:07:50;;;;;;;3.27;3.07;;;46.00;33.90;;;;;;5032974;28;20425;-71
2022/08/16 09:10:16;;;;;;;6.03;3.43;;;46.80;33.80;;;;;;5032720;28;20399;-71
2022/08/16 09:12:41;;;;;;;4.10;3.70;;;47.40;32.10;;;;;;5032978;28;20187;-71
2022/08/16 09:15:09;;;;;;;3.83;3.53;;;47.60;30.20;;;;;;5031364;28;20164;-71
2022/08/16 09:17:36;;;;;;;3.93;3.63;;;47.20;31.10;;;;;;5032536;28;20167;-71
2022/08/16 09:20:02;;;;;;;4.13;3.60;;;47.40;29.90;;;;;;5032292;28;20417;-72
2022/08/16 09:22:28;;;;;;;3.87;3.57;;;47.20;31.30;;;;;;5032478;28;20408;-71
2022/08/16 09:24:53;;;;;;;5.60;4.37;;;47.50;30.90;;;;;;5032425;28;20385;-71
2022/08/16 09:27:21;;;;;;;3.27;3.07;;;47.30;31.40;;;;;;5032780;28;20261;-71
2022/08/16 09:29:46;;;;;;;3.40;3.10;;;46.60;31.20;;;;;;5032646;28;20159;-71
2022/08/16 09:32:12;;;;;;;3.80;3.50;;;46.20;31.40;;;;;;5031419;28;20401;-71
2022/08/16 09:34:38;;;;;;;4.50;4.10;;;46.30;31.90;;;;;;5031880;28;20199;-71
2022/08/16 09:37:03;;;;;;;4.23;3.83;;;46.70;30.60;;;;;;5031970;28;20168;-71
2022/08/16 09:39:29;;;;;;;4.23;3.80;;;47.20;30.60;;;;;;5032054;28;20171;-71
2022/08/16 09:41:57;;;;;;;4.37;4.07;;;47.60;29.60;;;;;;5031833;28;20180;-71
2022/08/16 09:44:24;;;;;;;3.87;3.60;;;47.40;29.70;;;;;;5031595;28;20247;-71
2022/08/16 09:46:51;;;;;;;4.03;3.73;;;47.20;29.70;;;;;;5031863;28;20782;-71
2022/08/16 09:49:17;;;;;;;3.73;3.33;;;47.30;30.50;;;;;;5030674;28;20462;-71
2022/08/16 09:51:42;;;;;;;4.67;4.27;;;47.60;29.50;;;;;;5031569;28;20413;-71
2022/08/16 09:54:13;;;;;;;4.57;3.83;;;47.60;30.30;;;;;;5031750;28;20167;-71
2022/08/16 09:56:40;;;;;;;4.80;4.30;;;47.50;30.50;;;;;;5031697;28;20187;-71
2022/08/16 09:59:07;;;;;;;4.23;3.83;;;47.80;30.30;;;;;;5031791;28;20446;-72
2022/08/16 10:01:35;;;;;;;4.20;3.90;;;48.30;30.20;;;;;;5031677;28;20585;-72
2022/08/16 10:04:01;;;;;;;4.30;3.90;;;48.40;28.70;;;;;;5031622;28;20396;-72
2022/08/16 10:06:27;;;;;;;5.70;3.87;;;48.10;29.20;;;;;;5031505;28;20388;-72
2022/08/16 10:08:52;;;;;;;3.60;3.40;;;48.30;30.00;;;;;;5031236;28;20466;-72
2022/08/16 10:14:03;;;;;;;4.03;3.63;;;49.50;28.00;;;;;;5031904;28;20715;-71
2022/08/16 10:16:29;;;;;;;4.20;3.80;;;49.40;28.20;;;;;;5031407;28;20410;-71
2022/08/16 10:18:54;;;;;;;3.37;3.10;;;49.20;28.50;;;;;;5031599;28;20259;-71
2022/08/16 10:21:21;;;;;;;4.30;3.90;;;49.10;28.50;;;;;;5032135;28;20441;-71
2022/08/16 10:23:47;;;;;;;3.97;3.67;;;49.60;28.50;;;;;;5032063;28;20172;-71
2022/08/16 10:26:13;;;;;;;5.80;4.00;;;50.50;28.10;;;;;;5031775;28;20442;-71
2022/08/16 10:28:38;;;;;;;4.93;4.53;;;50.80;26.70;;;;;;5032196;28;20453;-71
2022/08/16 10:31:05;;;;;;;4.60;4.30;;;50.60;27.30;;;;;;5032006;28;20199;-71
2022/08/16 10:33:32;;;;;;;4.10;3.80;;;50.90;26.60;;;;;;5031953;28;20206;-71
2022/08/16 10:35:59;;;;;;;4.30;4.10;;;50.60;27.90;;;;;;5031800;28;20925;-71
2022/08/16 10:38:26;;;;;;;4.63;4.33;;;50.80;27.60;;;;;;5031891;28;20409;-71
2022/08/16 10:40:53;;;;;;;5.30;4.30;;;50.40;27.40;;;;;;5031663;28;20488;-71
2022/08/16 10:43:19;;;;;;;4.50;4.20;;;50.40;27.00;;;;;;5031991;28;20433;-71
2022/08/16 10:45:47;;;;;;;4.57;4.27;;;50.50;26.60;;;;;;5034803;28;20910;-71
2022/08/16 10:48:13;;;;;;;3.90;3.70;;;50.50;26.20;;;;;;5035081;28;21045;-71
2022/08/16 10:50:39;;;;;;;4.10;3.80;;;50.30;27.90;;;;;;5034981;28;20505;-72
2022/08/16 10:53:05;;;;;;;5.40;4.13;;;49.80;27.10;;;;;;5034932;28;20191;-72
2022/08/16 10:55:39;;;;;;;3.93;3.63;;;48.70;26.00;;;;;;5034744;28;20402;-71
2022/08/16 10:58:06;;;;;;;4.10;3.70;;;48.20;27.40;;;;;;5034975;28;20388;-71
2022/08/16 11:00:34;;;;;;;4.20;3.80;;;48.20;27.70;;;;;;5034864;28;20421;-72
2022/08/16 11:03:02;;;;;;;4.10;3.77;;;48.70;28.00;;;;;;5034923;28;20422;-72
2022/08/16 11:05:30;;;;;;;4.73;4.40;;;49.50;27.10;;;;;;5034620;28;20464;-72
2022/08/16 11:07:57;;;;;;;3.50;3.30;;;49.60;26.00;;;;;;5034648;28;20461;-72
2022/08/16 11:10:49;;;;;;;3.50;3.30;;;49.70;27.30;;;;;;5034860;28;20740;-71
2022/08/16 11:13:24;;;;;;;3.83;3.53;;;49.70;26.10;;;;;;5033489;28;20535;-71
2022/08/16 11:15:51;;;;;;;4.47;4.07;;;48.90;26.10;;;;;;5034406;28;20722;-71
2022/08/16 11:18:16;;;;;;;4.67;4.30;;;49.00;26.90;;;;;;5034290;28;20487;-70
2022/08/16 11:20:43;;;;;;;3.90;3.63;;;48.80;26.50;;;;;;5034637;28;20479;-71
2022/08/16 11:23:11;;;;;;;3.90;3.70;;;48.60;26.90;;;;;;5034140;28;20192;-71
2022/08/16 11:25:37;;;;;;;3.87;3.57;;;48.80;27.30;;;;;;5034243;28;20449;-71
2022/08/16 11:28:05;;;;;;;3.73;3.43;;;48.00;26.60;;;;;;5034278;28;20501;-70
2022/08/16 11:30:32;;;;;;;3.83;3.53;;;46.60;27.70;;;;;;5034374;28;20743;-70
2022/08/16 11:33:00;;;;;;;4.10;3.80;;;45.30;29.80;;;;;;5034226;28;20492;-70
2022/08/16 11:35:27;;;;;;;3.80;3.50;;;45.40;28.80;;;;;;5034359;28;20406;-70
2022/08/16 11:37:59;;;;;;;4.00;3.67;;;45.90;28.10;;;;;;5034687;28;20838;-71
2022/08/16 11:40:28;;;;;;;4.50;4.17;;;47.10;28.70;;;;;;5034954;28;20780;-71
2022/08/16 11:42:53;;;;;;;3.87;3.47;;;48.50;28.40;;;;;;5033405;28;20937;-71
2022/08/16 11:45:20;;;;;;;4.47;4.17;;;50.00;27.40;;;;;;5034072;28;20393;-71
2022/08/16 11:47:45;;;;;;;4.20;4.00;;;50.80;26.10;;;;;;5034295;28;20195;-71
2022/08/16 11:50:11;;;;;;;4.37;4.07;;;51.20;25.70;;;;;;5034094;28;20414;-71
2022/08/16 11:52:37;;;;;;;4.20;3.90;;;51.40;25.10;;;;;;5034335;28;20617;-71
2022/08/16 11:55:06;;;;;;;4.53;4.10;;;51.70;25.60;;;;;;5032347;28;20180;-71
2022/08/16 11:57:32;;;;;;;4.10;3.80;;;51.00;24.60;;;;;;5034338;28;20407;-71
2022/08/16 11:59:57;;;;;;;3.73;3.43;;;50.10;24.90;;;;;;5032999;28;20426;-71
2022/08/16 12:02:24;;;;;;;4.00;3.70;;;49.20;26.20;;;;;;5034191;28;20192;-71
2022/08/16 12:04:49;;;;;;;3.63;3.43;;;48.80;26.20;;;;;;5033953;28;20179;-71
2022/08/16 12:07:15;;;;;;;3.47;3.27;;;48.90;26.20;;;;;;5033547;28;20414;-71
2022/08/16 12:09:41;;;;;;;4.33;4.03;;;48.50;26.50;;;;;;5033697;28;20167;-71
2022/08/16 12:12:07;;;;;;;3.70;3.50;;;47.50;26.70;;;;;;5033386;28;20195;-71
2022/08/16 12:14:34;;;;;;;3.30;3.00;;;46.10;27.90;;;;;;5033264;28;20246;-70
2022/08/16 12:17:01;;;;;;;4.10;3.00;;;45.10;27.40;;;;;;5032206;28;20385;-71
2022/08/16 12:19:28;;;;;;;3.17;2.97;;;43.90;27.60;;;;;;5033375;28;20460;-71
2022/08/16 12:21:54;;;;;;;2.97;2.77;;;43.20;29.20;;;;;;5031992;28;20400;-70
2022/08/16 12:24:20;;;;;;;3.67;3.37;;;42.50;29.90;;;;;;5031881;28;20409;-71
2022/08/16 12:26:46;;;;;;;3.40;3.10;;;42.00;31.20;;;;;;5032760;28;20629;-70
2022/08/16 12:29:12;;;;;;;3.00;2.80;;;41.30;30.50;;;;;;5033700;28;20453;-70
2022/08/16 12:31:37;;;;;;;5.03;4.63;;;40.50;32.60;;;;;;5033614;28;20942;-70
2022/08/16 12:34:06;;;;;;;3.17;2.97;;;39.60;33.90;;;;;;5033052;28;20236;-70
2022/08/16 12:36:34;;;;;;;4.07;3.77;;;39.00;34.30;;;;;;5032819;28;20217;-71
2022/08/16 12:39:00;;;;;;;3.80;3.50;;;38.50;34.20;;;;;;5033161;28;20923;-71
2022/08/16 12:41:26;;;;;;;3.40;3.10;;;38.30;34.90;;;;;;5033076;28;20976;-71
2022/08/16 12:43:52;;;;;;;3.60;3.30;;;38.50;35.00;;;;;;5032953;28;20493;-71
2022/08/16 12:46:18;;;;;;;3.53;3.20;;;39.20;33.40;;;;;;5032611;28;20170;-71